Time;durP1;ratioP1;P1;durP2;ratioP2;P2;SDS_P1;SDS_P2;PMS_P1;PMS_P2;Temp;Humidity;BMP_temperature;BMP_pressure;BME280_temperature;BME280_humidity;BME280_pressure;Samples;Min_cycle;Max_cycle;Signal;HPM_P1;HPM_P2
2022/01/04 00:01:36;;;;;;;;;;;;;;;6.66;65.99;99776.34;7366989;19;19919;-57
2022/01/04 00:04:01;;;;;;;;;;;;;;;6.67;66.07;99782.41;7366125;19;19973;-56
2022/01/04 00:06:27;;;;;;;;;;;;;;;6.67;66.06;99782.41;7360218;19;19929;-57
2022/01/04 00:08:58;;;;;;;;;;;;;;;6.68;65.88;99777.16;7368605;19;19957;-56
2022/01/04 00:11:41;;;;;;;;;;;;;;;6.68;65.96;99778.91;7367348;19;19919;-54
2022/01/04 00:14:06;;;;;;;;;;;;;;;6.68;65.77;99794.47;7363637;19;19927;-57
2022/01/04 00:16:31;;;;;;;;;;;;;;;6.68;66.05;99784.94;7360907;19;19918;-56
2022/01/04 00:18:57;;;;;;;;;;;;;;;6.68;65.99;99786.69;7368977;19;19914;-57
2022/01/04 00:21:22;;;;;;;;;;;;;;;6.68;65.91;99784.09;7364457;19;19926;-57
2022/01/04 00:23:47;;;;;;;;;;;;;;;6.68;65.99;99789.28;7361953;19;19937;-57
2022/01/04 00:26:12;;;;;;;;;;;;;;;6.65;65.67;99784.19;7369494;19;19922;-56
2022/01/04 00:28:38;;;;;;;;;;;;;;;6.64;66.02;99788.53;7364935;19;19930;-56
2022/01/04 00:31:04;;;;;;;;;;;;;;;6.63;66.00;99785.94;7368586;19;19922;-57
2022/01/04 00:33:29;;;;;;;;;;;;;;;6.61;65.86;99788.56;7360872;19;20002;-57
2022/01/04 00:35:54;;;;;;;;;;;;;;;6.59;65.81;99779.97;7363237;19;19936;-56
2022/01/04 00:38:20;;;;;;;;;;;;;;;6.59;65.78;99790.38;7364241;19;19934;-54
2022/01/04 00:40:45;;;;;;;;;;;;;;;6.57;66.07;99788.66;7365331;19;19927;-57
2022/01/04 00:43:10;;;;;;;;;;;;;;;6.53;65.90;99790.47;7367899;19;19926;-54
2022/01/04 00:45:37;;;;;;;;;;;;;;;6.52;65.98;99790.50;7366411;19;19954;-57
2022/01/04 00:50:33;;;;;;;;;;;;;;;6.44;65.52;99791.53;7360156;19;20342;-57
2022/01/04 00:52:58;;;;;;;;;;;;;;;6.41;65.71;99786.41;7361652;19;19922;-57
2022/01/04 00:55:24;;;;;;;;;;;;;;;6.37;65.71;99792.53;7358927;19;19918;-56
2022/01/04 00:57:50;;;;;;;;;;;;;;;6.33;65.88;99793.47;7366903;19;19926;-56
2022/01/04 01:00:16;;;;;;;;;;;;;;;6.29;65.50;99794.44;7360037;19;19919;-57
2022/01/04 01:02:42;;;;;;;;;;;;;;;6.25;65.68;99795.38;7364168;19;19922;-55
2022/01/04 01:05:07;;;;;;;;;;;;;;;6.21;65.61;99794.56;7362843;19;19947;-58
2022/01/04 01:07:33;;;;;;;;;;;;;;;6.18;65.94;99801.53;7362823;19;19915;-55
2022/01/04 01:10:17;;;;;;;;;;;;;;;6.15;65.91;99799.03;7361647;19;19918;-54
2022/01/04 01:12:43;;;;;;;;;;;;;;;6.13;65.94;99800.78;7360216;19;19918;-56
2022/01/04 01:15:08;;;;;;;;;;;;;;;6.10;65.87;99799.09;7359355;19;20357;-56
2022/01/04 01:17:34;;;;;;;;;;;;;;;6.08;65.95;99797.41;7365560;19;19955;-58
2022/01/04 01:19:59;;;;;;;;;;;;;;;6.05;65.70;99802.69;7360249;19;20583;-55
2022/01/04 01:22:25;;;;;;;;;;;;;;;6.04;65.92;99798.38;7361024;19;20623;-55
2022/01/04 01:24:50;;;;;;;;;;;;;;;6.00;66.05;99800.16;7364166;19;19947;-56
2022/01/04 01:27:15;;;;;;;;;;;;;;;5.98;66.07;99797.63;7365922;19;19915;-56
2022/01/04 01:29:40;;;;;;;;;;;;;;;5.97;66.08;99795.03;7361666;19;19915;-54
2022/01/04 01:32:06;;;;;;;;;;;;;;;5.94;65.95;99789.91;7356307;19;19942;-56
2022/01/04 01:34:31;;;;;;;;;;;;;;;5.92;66.01;99791.66;7361782;19;20257;-56
2022/01/04 01:36:56;;;;;;;;;;;;;;;5.87;66.09;99781.34;7362045;19;20585;-54
2022/01/04 01:39:22;;;;;;;;;;;;;;;5.85;65.87;99788.31;7360209;19;19919;-56
2022/01/04 01:41:47;;;;;;;;;;;;;;;5.83;65.81;99789.19;7360660;19;19918;-55
2022/01/04 01:44:12;;;;;;;;;;;;;;;5.79;65.86;99785.84;7364928;19;19921;-55
2022/01/04 01:46:38;;;;;;;;;;;;;;;5.76;65.89;99788.47;7364397;19;19986;-55
2022/01/04 01:49:03;;;;;;;;;;;;;;;5.73;65.96;99791.13;7361197;19;20361;-57
2022/01/04 01:51:29;;;;;;;;;;;;;;;5.68;65.89;99804.16;7365826;19;19914;-55
2022/01/04 01:53:54;;;;;;;;;;;;;;;5.64;65.99;99796.47;7361478;19;20340;-53
2022/01/04 01:56:20;;;;;;;;;;;;;;;5.61;65.76;99801.69;7357290;19;19923;-55
2022/01/04 01:58:45;;;;;;;;;;;;;;;5.54;66.00;99800.94;7360629;19;19926;-56
2022/01/04 02:01:11;;;;;;;;;;;;;;;5.50;65.92;99798.44;7351586;19;19930;-52
2022/01/04 02:03:37;;;;;;;;;;;;;;;5.46;65.86;99805.38;7365076;19;19926;-54
2022/01/04 02:06:02;;;;;;;;;;;;;;;5.42;65.72;99807.19;7359270;19;19918;-57
2022/01/04 02:08:28;;;;;;;;;;;;;;;5.38;65.79;99813.28;7359367;19;19919;-55
2022/01/04 02:10:55;;;;;;;;;;;;;;;5.34;65.79;99809.03;7359799;19;20767;-56
2022/01/04 02:13:20;;;;;;;;;;;;;;;5.31;65.95;99806.47;7359624;19;20719;-53
2022/01/04 02:15:46;;;;;;;;;;;;;;;5.27;66.05;99797.06;7354062;19;20810;-55
2022/01/04 02:18:11;;;;;;;;;;;;;;;5.25;65.80;99800.53;7363123;19;19986;-54
2022/01/04 02:20:36;;;;;;;;;;;;;;;5.20;66.29;99803.19;7359186;19;19928;-52
2022/01/04 02:23:01;;;;;;;;;;;;;;;5.17;66.07;99816.19;7360589;19;20332;-56
2022/01/04 02:25:28;;;;;;;;;;;;;;;5.14;66.33;99826.59;7363601;19;19944;-56
2022/01/04 02:27:54;;;;;;;;;;;;;;;5.10;66.17;99819.75;7366618;19;19919;-54
2022/01/04 02:30:20;;;;;;;;;;;;;;;5.07;66.14;99824.94;7361323;19;19914;-54
2022/01/04 02:32:46;;;;;;;;;;;;;;;5.03;65.95;99831.94;7363279;19;20373;-56
2022/01/04 02:35:12;;;;;;;;;;;;;;;5.00;66.32;99829.38;7359677;19;19922;-56
2022/01/04 02:37:37;;;;;;;;;;;;;;;4.97;66.12;99828.53;7365674;19;19929;-57
2022/01/04 02:40:03;;;;;;;;;;;;;;;4.92;66.41;99826.91;7371943;19;19982;-54
2022/01/04 02:42:28;;;;;;;;;;;;;;;4.90;66.12;99831.22;7367106;19;19933;-56
2022/01/04 02:44:53;;;;;;;;;;;;;;;4.86;66.43;99829.56;7368886;19;19919;-57
2022/01/04 02:47:19;;;;;;;;;;;;;;;4.84;66.46;99830.47;7368377;19;19914;-54
2022/01/04 02:49:44;;;;;;;;;;;;;;;4.81;66.31;99831.34;7366309;19;19922;-55
2022/01/04 02:52:10;;;;;;;;;;;;;;;4.78;66.11;99828.81;7370245;19;19943;-56
2022/01/04 02:54:35;;;;;;;;;;;;;;;4.75;66.41;99831.44;7366943;19;19946;-56
2022/01/04 02:57:00;;;;;;;;;;;;;;;4.72;66.16;99839.25;7366728;19;20280;-54
2022/01/04 02:59:26;;;;;;;;;;;;;;;4.70;66.66;99851.31;7364446;19;19914;-53
2022/01/04 03:01:51;;;;;;;;;;;;;;;4.68;66.50;99843.59;7363600;19;19918;-54
2022/01/04 03:04:17;;;;;;;;;;;;;;;4.66;66.47;99845.34;7369804;19;19921;-55
2022/01/04 03:06:42;;;;;;;;;;;;;;;4.64;66.40;99841.91;7355372;19;20049;-56
2022/01/04 03:09:07;;;;;;;;;;;;;;;4.63;66.75;99847.09;7361777;19;19930;-56
2022/01/04 03:11:33;;;;;;;;;;;;;;;4.61;66.81;99846.25;7366983;19;19930;-56
2022/01/04 03:13:59;;;;;;;;;;;;;;;4.60;66.77;99849.72;7360249;19;19919;-56
2022/01/04 03:16:24;;;;;;;;;;;;;;;4.57;66.43;99854.94;7363667;19;19923;-56
2022/01/04 03:19:09;;;;;;;;;;;;;;;4.50;66.49;99840.38;7364994;19;19974;-55
2022/01/04 03:21:39;;;;;;;;;;;;;;;4.55;66.89;99851.50;7370400;19;19927;-57
2022/01/04 03:24:05;;;;;;;;;;;;;;;4.52;66.73;99856.72;7368503;19;19933;-57
2022/01/04 03:26:30;;;;;;;;;;;;;;;4.52;66.71;99856.72;7364151;19;19915;-57
2022/01/04 03:28:56;;;;;;;;;;;;;;;4.49;66.92;99852.44;7366441;19;20644;-56
2022/01/04 03:31:21;;;;;;;;;;;;;;;4.47;66.87;99859.38;7366671;19;19915;-57
2022/01/04 03:33:46;;;;;;;;;;;;;;;4.43;66.51;99858.53;7367723;19;19922;-56
2022/01/04 03:36:12;;;;;;;;;;;;;;;4.42;66.76;99853.41;7370190;19;19928;-54
2022/01/04 03:38:37;;;;;;;;;;;;;;;4.39;66.72;99859.44;7366158;19;19942;-56
2022/01/04 03:41:03;;;;;;;;;;;;;;;4.37;66.74;99850.84;7363873;19;19941;-57
2022/01/04 03:43:29;;;;;;;;;;;;;;;4.34;66.56;99858.63;7368007;19;19973;-58
2022/01/04 03:45:55;;;;;;;;;;;;;;;4.32;66.55;99855.22;7368743;19;19922;-58
2022/01/04 03:48:20;;;;;;;;;;;;;;;4.29;66.51;99855.25;7351725;19;19919;-56
2022/01/04 03:50:45;;;;;;;;;;;;;;;4.26;66.75;99850.13;7367934;19;19958;-54
2022/01/04 03:53:11;;;;;;;;;;;;;;;4.22;66.97;99853.59;7367325;19;19915;-57
2022/01/04 03:55:36;;;;;;;;;;;;;;;4.19;66.75;99853.63;7366022;19;20031;-56
2022/01/04 03:58:01;;;;;;;;;;;;;;;4.16;66.68;99864.00;7367158;19;19926;-57
2022/01/04 04:00:27;;;;;;;;;;;;;;;4.13;66.78;99858.88;7360887;19;20269;-60
2022/01/04 04:02:52;;;;;;;;;;;;;;;4.09;67.00;99867.50;7362127;19;20332;-56
2022/01/04 04:05:18;;;;;;;;;;;;;;;4.06;66.80;99875.31;7368918;19;19934;-55
2022/01/04 04:07:43;;;;;;;;;;;;;;;4.02;66.75;99876.19;7357777;19;19922;-57
2022/01/04 04:10:09;;;;;;;;;;;;;;;3.99;66.67;99881.38;7361849;19;19926;-53
2022/01/04 04:12:34;;;;;;;;;;;;;;;3.96;67.00;99891.75;7360729;19;19926;-58
2022/01/04 04:15:03;;;;;;;;;;;;;;;3.93;66.67;99889.19;7367713;19;19934;-53
2022/01/04 04:17:29;;;;;;;;;;;;;;;3.89;67.07;99886.63;7364769;19;19922;-55
2022/01/04 04:19:54;;;;;;;;;;;;;;;3.87;67.02;99883.22;7347516;19;19923;-57
2022/01/04 04:22:20;;;;;;;;;;;;;;;3.84;67.27;99882.38;7363527;19;19998;-52
2022/01/04 04:24:45;;;;;;;;;;;;;;;3.82;66.82;99889.28;7363474;19;19929;-55
2022/01/04 04:27:11;;;;;;;;;;;;;;;3.78;67.28;99893.63;7366702;19;19952;-56
2022/01/04 04:29:36;;;;;;;;;;;;;;;3.77;67.13;99891.91;7365913;19;19922;-57
2022/01/04 04:32:01;;;;;;;;;;;;;;;3.74;67.13;99893.66;7365044;19;19930;-58
2022/01/04 04:34:27;;;;;;;;;;;;;;;3.73;67.12;99910.00;7359097;19;20277;-57
2022/01/04 04:36:52;;;;;;;;;;;;;;;3.70;67.13;99913.50;7358551;19;20600;-57
2022/01/04 04:39:17;;;;;;;;;;;;;;;3.67;67.02;99913.50;7365723;19;19930;-56
2022/01/04 04:41:42;;;;;;;;;;;;;;;3.66;67.57;99913.53;7363977;19;20638;-56
2022/01/04 04:44:08;;;;;;;;;;;;;;;3.63;67.39;99910.06;7356367;19;20017;-56
2022/01/04 04:46:33;;;;;;;;;;;;;;;3.60;67.51;99914.44;7368384;19;20354;-56
2022/01/04 04:48:59;;;;;;;;;;;;;;;3.58;67.52;99921.31;7353026;19;19922;-58
2022/01/04 04:51:26;;;;;;;;;;;;;;;3.55;67.26;99921.34;7358104;19;19913;-55
2022/01/04 04:53:51;;;;;;;;;;;;;;;3.52;67.51;99931.69;7365882;19;19922;-58
2022/01/04 04:56:16;;;;;;;;;;;;;;;3.49;67.11;99929.09;7359050;19;19940;-55
2022/01/04 04:58:42;;;;;;;;;;;;;;;3.47;67.46;99928.28;7361552;19;19919;-55
2022/01/04 05:01:07;;;;;;;;;;;;;;;3.44;67.22;99923.97;7361954;19;19928;-56
2022/01/04 05:03:32;;;;;;;;;;;;;;;3.42;67.39;99937.75;7356559;19;19918;-55
2022/01/04 05:05:58;;;;;;;;;;;;;;;3.39;67.47;99942.06;7365140;19;20350;-54
2022/01/04 05:08:23;;;;;;;;;;;;;;;3.38;67.64;99942.94;7360559;19;19931;-54
2022/01/04 05:10:48;;;;;;;;;;;;;;;3.35;67.54;99942.97;7363726;19;19955;-53
2022/01/04 05:13:13;;;;;;;;;;;;;;;3.34;67.72;99937.78;7361520;19;19915;-56
2022/01/04 05:15:39;;;;;;;;;;;;;;;3.31;67.56;99938.69;7364140;19;20255;-52
2022/01/04 05:18:04;;;;;;;;;;;;;;;3.30;67.61;99938.69;7361466;19;19918;-57
2022/01/04 05:20:29;;;;;;;;;;;;;;;3.27;67.78;99936.97;7360733;19;20332;-54
2022/01/04 05:22:54;;;;;;;;;;;;;;;3.25;67.67;99935.28;7361704;19;19930;-56
2022/01/04 05:25:20;;;;;;;;;;;;;;;3.24;67.69;99943.88;7361080;19;20002;-54
2022/01/04 05:27:45;;;;;;;;;;;;;;;3.24;67.61;99954.19;7359366;19;19914;-57
2022/01/04 05:30:11;;;;;;;;;;;;;;;3.22;67.90;99959.38;7360288;19;20349;-56
2022/01/04 05:32:36;;;;;;;;;;;;;;;3.22;68.06;99959.38;7358842;19;19990;-56
2022/01/04 05:35:01;;;;;;;;;;;;;;;3.21;67.73;99965.41;7363567;19;19927;-57
2022/01/04 05:37:27;;;;;;;;;;;;;;;3.20;68.04;99966.25;7357325;19;19975;-54
2022/01/04 05:39:52;;;;;;;;;;;;;;;3.19;67.81;99972.25;7363571;19;19919;-56
2022/01/04 05:42:17;;;;;;;;;;;;;;;3.20;68.07;99970.56;7358662;19;19925;-55
2022/01/04 05:44:42;;;;;;;;;;;;;;;3.20;67.90;99975.72;7365496;19;19930;-54
2022/01/04 05:47:08;;;;;;;;;;;;;;;3.18;67.70;99973.13;7211944;19;2866465;-56
2022/01/04 05:49:34;;;;;;;;;;;;;;;3.18;68.08;99983.47;7368341;19;19932;-55
2022/01/04 05:51:59;;;;;;;;;;;;;;;3.19;68.27;99985.16;7362308;19;19939;-56
2022/01/04 05:54:24;;;;;;;;;;;;;;;3.17;68.14;99986.91;7359756;19;20674;-56
2022/01/04 05:56:49;;;;;;;;;;;;;;;3.18;68.11;99982.59;7366241;19;19936;-56
2022/01/04 05:59:15;;;;;;;;;;;;;;;3.16;68.17;99980.03;7362494;19;19931;-55
2022/01/04 06:01:40;;;;;;;;;;;;;;;3.17;68.01;99979.16;7361498;19;19914;-54
2022/01/04 06:04:06;;;;;;;;;;;;;;;3.16;68.30;99982.63;7364723;19;19935;-53
2022/01/04 06:06:31;;;;;;;;;;;;;;;3.15;68.32;99980.91;7364627;19;19927;-55
2022/01/04 06:08:57;;;;;;;;;;;;;;;3.15;68.19;99983.50;7354798;19;19935;-55
2022/01/04 06:11:32;;;;;;;;;;;;;;;3.15;68.16;99978.31;7365766;19;19926;-57
2022/01/04 06:16:41;;;;;;;;;;;;;;;3.13;68.31;99991.22;7354713;19;19929;-55
2022/01/04 06:19:07;;;;;;;;;;;;;;;3.10;68.20;99990.38;7362821;19;19915;-55
2022/01/04 06:21:32;;;;;;;;;;;;;;;3.11;68.54;99992.09;7367179;19;20340;-57
2022/01/04 06:23:57;;;;;;;;;;;;;;;3.08;68.23;99999.84;7360781;19;19919;-58
2022/01/04 06:26:23;;;;;;;;;;;;;;;3.08;68.37;100002.41;7366881;19;20270;-51
2022/01/04 06:28:48;;;;;;;;;;;;;;;3.07;68.25;100011.88;7365991;19;19922;-56
2022/01/04 06:31:14;;;;;;;;;;;;;;;3.06;68.30;100009.31;7359833;19;19935;-56
2022/01/04 06:33:39;;;;;;;;;;;;;;;3.05;68.33;100015.34;7363283;19;19928;-54
2022/01/04 06:36:04;;;;;;;;;;;;;;;3.05;68.38;100028.25;7363861;19;19918;-54
2022/01/04 06:38:30;;;;;;;;;;;;;;;3.04;68.30;100017.06;7362541;19;19919;-57
2022/01/04 06:40:55;;;;;;;;;;;;;;;3.03;68.15;100032.53;7362564;19;20055;-57
2022/01/04 06:43:20;;;;;;;;;;;;;;;3.03;68.46;100035.09;7360593;19;19915;-54
2022/01/04 06:45:45;;;;;;;;;;;;;;;3.04;68.60;100049.72;7360507;19;19914;-57
2022/01/04 06:48:11;;;;;;;;;;;;;;;3.04;68.47;100047.13;7361196;19;19929;-55
2022/01/04 06:50:36;;;;;;;;;;;;;;;3.05;68.74;100054.88;7361889;19;19926;-53
2022/01/04 06:53:01;;;;;;;;;;;;;;;3.07;68.36;100060.88;7360649;19;19915;-57
2022/01/04 06:55:27;;;;;;;;;;;;;;;3.08;68.77;100061.75;7361600;19;20403;-55
2022/01/04 06:57:52;;;;;;;;;;;;;;;3.09;68.46;100060.88;7358871;19;19922;-57
2022/01/04 07:00:17;;;;;;;;;;;;;;;3.08;68.62;100054.84;7361928;19;19939;-55
2022/01/04 07:02:44;;;;;;;;;;;;;;;3.08;68.46;100054.84;7363952;19;19918;-55
2022/01/04 07:05:09;;;;;;;;;;;;;;;3.02;68.61;100044.56;7355630;19;19918;-58
2022/01/04 07:07:35;;;;;;;;;;;;;;;3.07;68.79;100057.44;7364397;19;19923;-56
2022/01/04 07:10:00;;;;;;;;;;;;;;;3.06;68.65;100060.91;7355456;19;19915;-57
2022/01/04 07:12:25;;;;;;;;;;;;;;;3.06;68.60;100071.22;7364208;19;20252;-55
2022/01/04 07:14:51;;;;;;;;;;;;;;;3.04;68.42;100072.91;7363527;19;19924;-53
2022/01/04 07:17:16;;;;;;;;;;;;;;;3.03;68.89;100071.22;7359552;19;20456;-57
2022/01/04 07:19:41;;;;;;;;;;;;;;;3.03;68.88;100071.22;7360898;19;19929;-57
2022/01/04 07:22:07;;;;;;;;;;;;;;;3.02;68.88;100077.22;7368201;19;19923;-53
2022/01/04 07:24:32;;;;;;;;;;;;;;;3.00;68.57;100079.81;7366598;19;19938;-54
2022/01/04 07:26:57;;;;;;;;;;;;;;;2.99;68.89;100074.66;7368515;19;19922;-56
2022/01/04 07:29:23;;;;;;;;;;;;;;;2.98;68.85;100072.94;7361550;19;19926;-55
2022/01/04 07:31:48;;;;;;;;;;;;;;;2.96;68.92;100069.53;7363105;19;20340;-55
2022/01/04 07:34:14;;;;;;;;;;;;;;;2.95;68.91;100083.28;7355663;19;19919;-55
2022/01/04 07:36:39;;;;;;;;;;;;;;;2.93;68.63;100090.13;7369702;19;20335;-54
2022/01/04 07:39:05;;;;;;;;;;;;;;;2.93;68.96;100090.13;7370860;19;20482;-51
2022/01/04 07:41:30;;;;;;;;;;;;;;;2.93;68.93;100095.31;7365002;19;19946;-56
2022/01/04 07:43:55;;;;;;;;;;;;;;;2.92;68.90;100103.91;7369044;19;20191;-53
2022/01/04 07:46:23;;;;;;;;;;;;;;;2.92;68.78;100114.22;7363178;19;19915;-55
2022/01/04 07:48:50;;;;;;;;;;;;;;;2.91;68.67;100108.22;7356077;19;19919;-54
2022/01/04 07:51:16;;;;;;;;;;;;;;;2.92;68.98;100111.63;7361042;19;19914;-55
2022/01/04 07:53:41;;;;;;;;;;;;;;;2.91;68.82;100117.66;7369016;19;19947;-53
2022/01/04 07:56:06;;;;;;;;;;;;;;;2.91;68.97;100117.66;7355024;19;19934;-56
2022/01/04 07:58:32;;;;;;;;;;;;;;;2.91;69.19;100117.66;7363346;19;19935;-57
2022/01/04 08:00:57;;;;;;;;;;;;;;;2.90;68.84;100121.97;7363533;19;19919;-56
2022/01/04 08:03:23;;;;;;;;;;;;;;;2.89;68.71;100120.25;7357646;19;19915;-54
2022/01/04 08:05:48;;;;;;;;;;;;;;;2.88;68.92;100122.81;7365783;19;19930;-56
2022/01/04 08:08:14;;;;;;;;;;;;;;;2.87;69.13;100132.28;7361960;19;19923;-56
2022/01/04 08:10:39;;;;;;;;;;;;;;;2.85;68.66;100137.44;7363326;19;19915;-54
2022/01/04 08:13:05;;;;;;;;;;;;;;;2.84;68.97;100143.47;7353352;19;19944;-57
2022/01/04 08:15:30;;;;;;;;;;;;;;;2.82;68.60;100145.16;7363999;19;20301;-57
2022/01/04 08:17:56;;;;;;;;;;;;;;;2.81;68.92;100138.28;7362010;19;19944;-57
2022/01/04 08:20:21;;;;;;;;;;;;;;;2.80;69.02;100135.72;7355149;19;19934;-55
2022/01/04 08:22:46;;;;;;;;;;;;;;;2.74;68.99;100136.59;7361997;19;19923;-54
2022/01/04 08:25:12;;;;;;;;;;;;;;;2.78;69.06;100153.75;7357215;19;19911;-54
2022/01/04 08:27:38;;;;;;;;;;;;;;;2.77;69.14;100154.63;7363893;19;20247;-57
2022/01/04 08:30:05;;;;;;;;;;;;;;;2.76;69.16;100158.06;7359698;19;20646;-56
2022/01/04 08:32:30;;;;;;;;;;;;;;;2.76;69.07;100157.22;7361344;19;20030;-54
2022/01/04 08:34:55;;;;;;;;;;;;;;;2.74;69.38;100162.38;7358053;19;20592;-55
2022/01/04 08:37:20;;;;;;;;;;;;;;;2.73;69.39;100165.78;7362332;19;19991;-58
2022/01/04 08:39:46;;;;;;;;;;;;;;;2.71;69.25;100164.94;7354570;19;19948;-57
2022/01/04 08:42:11;;;;;;;;;;;;;;;2.71;69.40;100167.50;7361340;19;19926;-55
2022/01/04 08:44:39;;;;;;;;;;;;;;;2.70;69.25;100164.94;7358947;19;19922;-58
2022/01/04 08:47:06;;;;;;;;;;;;;;;2.68;69.35;100175.22;7362243;19;19926;-54
2022/01/04 08:49:31;;;;;;;;;;;;;;;2.69;69.40;100171.81;7366367;19;19911;-55
2022/01/04 08:51:56;;;;;;;;;;;;;;;2.68;69.27;100174.38;7362747;19;20417;-54
2022/01/04 08:54:21;;;;;;;;;;;;;;;2.67;69.31;100176.09;7362971;19;19915;-56
2022/01/04 08:56:47;;;;;;;;;;;;;;;2.67;69.23;100180.41;7354314;19;19930;-57
2022/01/04 08:59:13;;;;;;;;;;;;;;;2.67;69.21;100185.56;7362057;19;19927;-55
2022/01/04 09:01:39;;;;;;;;;;;;;;;2.68;69.27;100187.25;7363389;19;19923;-57
2022/01/04 09:04:06;;;;;;;;;;;;;;;2.69;69.55;100204.47;7363459;19;20344;-58
2022/01/04 09:06:32;;;;;;;;;;;;;;;2.70;69.62;100212.19;7361815;19;19906;-53
2022/01/04 09:08:57;;;;;;;;;;;;;;;2.74;69.48;100207.91;7356071;19;19926;-54
2022/01/04 09:11:23;;;;;;;;;;;;;;;2.76;69.28;100207.03;7360945;19;19922;-55
2022/01/04 09:13:49;;;;;;;;;;;;;;;2.78;69.22;100205.31;7355056;19;19919;-56
2022/01/04 09:18:43;;;;;;;;;;;;;;;2.84;69.37;100214.81;7357499;19;19922;-56
2022/01/04 09:21:19;;;;;;;;;;;;;;;2.88;69.37;100220.81;7354900;19;20004;-55
2022/01/04 09:23:46;;;;;;;;;;;;;;;2.92;69.67;100227.69;7357634;19;19965;-55
2022/01/04 09:26:12;;;;;;;;;;;;;;;2.94;69.58;100225.97;7358752;19;19978;-57
2022/01/04 09:28:37;;;;;;;;;;;;;;;2.98;69.56;100222.53;7357042;19;19926;-58
2022/01/04 09:31:03;;;;;;;;;;;;;;;3.02;69.51;100239.72;7364948;19;19922;-56
2022/01/04 09:33:28;;;;;;;;;;;;;;;3.04;69.62;100248.31;7357475;19;20399;-55
2022/01/04 09:35:54;;;;;;;;;;;;;;;3.06;69.35;100242.31;7359926;19;20332;-57
2022/01/04 09:38:20;;;;;;;;;;;;;;;3.10;69.16;100254.38;7355349;19;19923;-57
2022/01/04 09:40:46;;;;;;;;;;;;;;;3.13;69.40;100254.34;7360657;19;19922;-53
2022/01/04 09:43:12;;;;;;;;;;;;;;;3.17;69.38;100260.38;7349807;19;20013;-53
2022/01/04 09:45:37;;;;;;;;;;;;;;;3.21;69.57;100264.69;7359920;19;19986;-54
2022/01/04 09:48:03;;;;;;;;;;;;;;;3.23;69.21;100268.09;7360179;19;20279;-55
2022/01/04 09:50:32;;;;;;;;;;;;;;;3.26;69.29;100268.13;7364694;19;19918;-53
2022/01/04 09:52:59;;;;;;;;;;;;;;;3.29;69.10;100268.09;7359921;19;19914;-57
2022/01/04 09:55:24;;;;;;;;;;;;;;;3.33;69.30;100266.38;7356656;19;19919;-53
2022/01/04 09:57:49;;;;;;;;;;;;;;;3.35;69.04;100257.81;7362118;19;19921;-54
2022/01/04 10:00:16;;;;;;;;;;;;;;;3.39;69.23;100264.66;7354228;19;19933;-55
2022/01/04 10:02:42;;;;;;;;;;;;;;;3.43;69.48;100267.25;7356794;19;19922;-54
2022/01/04 10:05:27;;;;;;;;;;;;;;;3.46;69.01;100267.25;7366825;19;20276;-54
2022/01/04 10:08:03;;;;;;;;;;;;;;;3.50;69.39;100279.31;7359248;19;19925;-53
2022/01/04 10:10:28;;;;;;;;;;;;;;;3.55;69.10;100287.91;7361914;19;19989;-53
2022/01/04 10:12:55;;;;;;;;;;;;;;;3.60;69.10;100286.19;7362034;19;19961;-54
2022/01/04 10:15:29;;;;;;;;;;;;;;;3.65;69.33;100299.94;7366423;19;19961;-55
2022/01/04 10:17:58;;;;;;;;;;;;;;;3.76;69.53;100302.53;7357897;19;19927;-53
2022/01/04 10:20:23;;;;;;;;;;;;;;;3.88;69.69;100305.91;7357335;19;19933;-49
2022/01/04 10:22:50;;;;;;;;;;;;;;;4.06;69.85;100312.78;7361439;19;19922;-55
2022/01/04 10:25:16;;;;;;;;;;;;;;;4.22;69.69;100318.78;7352032;19;20267;-53
2022/01/04 10:27:51;;;;;;;;;;;;;;;4.33;69.28;100322.19;7363734;19;19926;-51
2022/01/04 10:30:23;;;;;;;;;;;;;;;4.39;69.29;100316.97;7364851;19;19949;-52
2022/01/04 10:33:15;;;;;;;;;;;;;;;4.46;69.24;100311.78;7362927;19;20380;-56
2022/01/04 10:35:41;;;;;;;;;;;;;;;4.57;69.56;100300.53;7261605;19;2004346;-53
2022/01/04 10:38:11;;;;;;;;;;;;;;;4.79;69.97;100301.28;7360808;19;19939;-56
2022/01/04 10:40:38;;;;;;;;;;;;;;;5.07;70.46;100306.28;7358220;19;19967;-52
2022/01/04 10:43:14;;;;;;;;;;;;;;;5.38;70.46;100318.16;7356863;19;19915;-54
2022/01/04 10:45:42;;;;;;;;;;;;;;;5.78;70.47;100312.63;7354263;19;19943;-54
2022/01/04 10:48:20;;;;;;;;;;;;;;;6.14;70.05;100311.44;7353016;19;20544;-56
2022/01/04 10:50:53;;;;;;;;;;;;;;;6.52;70.03;100301.47;7362666;19;20386;-56
2022/01/04 10:53:18;;;;;;;;;;;;;;;6.84;70.01;100301.91;7358874;19;19930;-55
2022/01/04 10:55:44;;;;;;;;;;;;;;;7.13;69.58;100305.84;7362456;19;20252;-53
2022/01/04 10:58:17;;;;;;;;;;;;;;;7.41;69.74;100295.88;7357325;19;19915;-54
2022/01/04 11:00:48;;;;;;;;;;;;;;;7.66;69.02;100310.19;7366095;19;19926;-54
2022/01/04 11:03:21;;;;;;;;;;;;;;;7.86;68.69;100311.59;7358138;19;19927;-54
2022/01/04 11:05:46;;;;;;;;;;;;;;;8.00;67.86;100306.97;7360052;19;19918;-55
2022/01/04 11:08:17;;;;;;;;;;;;;;;8.11;67.84;100310.25;7367138;19;20249;-54
2022/01/04 11:10:43;;;;;;;;;;;;;;;8.19;67.31;100302.28;7368004;19;19926;-57
2022/01/04 11:13:08;;;;;;;;;;;;;;;8.24;67.09;100305.66;7368021;19;19997;-53
2022/01/04 11:15:34;;;;;;;;;;;;;;;8.29;66.95;100301.22;7367394;19;19915;-58
2022/01/04 11:17:59;;;;;;;;;;;;;;;8.39;67.55;100297.56;7366700;19;19922;-56
2022/01/04 11:20:24;;;;;;;;;;;;;;;8.51;67.67;100299.91;7369497;19;20507;-50
2022/01/04 11:22:50;;;;;;;;;;;;;;;8.67;67.47;100290.06;7369343;19;19937;-53
2022/01/04 11:25:17;;;;;;;;;;;;;;;8.86;67.57;100290.50;7363488;19;19919;-54
2022/01/04 11:27:43;;;;;;;;;;;;;;;9.03;66.79;100287.53;7368449;19;19934;-54
2022/01/04 11:30:21;;;;;;;;;;;;;;;9.24;67.20;100278.34;7364365;19;19922;-56
2022/01/04 11:32:51;;;;;;;;;;;;;;;9.46;66.79;100289.97;7369571;19;19927;-57
2022/01/04 11:35:19;;;;;;;;;;;;;;;9.67;67.07;100287.72;7368144;19;19989;-56
2022/01/04 11:37:55;;;;;;;;;;;;;;;9.93;67.33;100294.84;7358516;19;19919;-51
2022/01/04 11:40:21;;;;;;;;;;;;;;;10.14;66.82;100282.09;7364889;19;20357;-56
2022/01/04 11:42:46;;;;;;;;;;;;;;;10.34;66.81;100288.53;7368665;19;19923;-57
2022/01/04 11:45:11;;;;;;;;;;;;;;;10.48;66.16;100280.31;7370801;19;19938;-57
2022/01/04 11:47:37;;;;;;;;;;;;;;;10.68;65.60;100280.56;7357793;19;19924;-56
2022/01/04 11:50:03;;;;;;;;;;;;;;;10.82;65.94;100280.16;7369814;19;19947;-55
2022/01/04 11:52:48;;;;;;;;;;;;;;;10.95;65.46;100281.53;7360905;19;19923;-52
2022/01/04 11:55:16;;;;;;;;;;;;;;;11.10;65.38;100286.25;7370724;19;20002;-57
2022/01/04 11:57:41;;;;;;;;;;;;;;;11.25;64.91;100284.03;7359462;19;19922;-55
2022/01/04 12:00:08;;;;;;;;;;;;;;;11.35;64.36;100281.09;7362114;19;19910;-54
2022/01/04 12:02:41;;;;;;;;;;;;;;;11.45;64.45;100292.09;7369313;19;19952;-54
2022/01/04 12:05:21;;;;;;;;;;;;;;;11.56;63.91;100284.78;7362680;19;20466;-53
2022/01/04 12:07:53;;;;;;;;;;;;;;;11.67;64.35;100287.03;7367827;19;19963;-54
2022/01/04 12:10:19;;;;;;;;;;;;;;;11.79;63.98;100278.75;7362348;19;19924;-57
2022/01/04 12:13:06;;;;;;;;;;;;;;;11.87;64.13;100282.00;7364042;19;20346;-55
2022/01/04 12:15:35;;;;;;;;;;;;;;;11.96;63.85;100286.03;7258250;19;2004753;-57
2022/01/04 12:18:01;;;;;;;;;;;;;;;12.02;63.58;100280.59;7367188;19;20009;-57
2022/01/04 12:20:41;;;;;;;;;;;;;;;12.07;63.11;100283.91;7366827;19;19915;-56
2022/01/04 12:23:25;;;;;;;;;;;;;;;12.11;62.89;100288.09;7369746;19;19923;-54
2022/01/04 12:26:06;;;;;;;;;;;;;;;12.15;62.74;100288.88;7368446;19;20013;-54
2022/01/04 12:28:32;;;;;;;;;;;;;;;12.18;62.18;100289.63;7360371;19;19923;-58
2022/01/04 12:33:42;;;;;;;;;;;;;;;12.31;61.89;100283.94;7360328;19;19944;-54
2022/01/04 12:36:07;;;;;;;;;;;;;;;12.34;61.48;100281.22;7367925;19;19938;-57
2022/01/04 12:38:34;;;;;;;;;;;;;;;12.36;61.67;100288.06;7363389;19;20525;-56
2022/01/04 12:41:01;;;;;;;;;;;;;;;12.39;61.31;100287.13;7364390;19;19952;-55
2022/01/04 12:43:27;;;;;;;;;;;;;;;12.45;61.36;100292.97;7345942;19;19922;-54
2022/01/04 12:45:59;;;;;;;;;;;;;;;12.52;61.66;100293.63;7363755;19;19914;-54
2022/01/04 12:48:44;;;;;;;;;;;;;;;12.58;61.23;100293.41;7368399;19;19919;-52
2022/01/04 12:51:25;;;;;;;;;;;;;;;12.63;60.64;100285.38;7357967;19;19927;-56
2022/01/04 12:53:51;;;;;;;;;;;;;;;12.71;60.84;100284.16;7367577;19;19911;-54
2022/01/04 12:56:16;;;;;;;;;;;;;;;12.80;60.71;100292.56;7360478;19;19919;-55
2022/01/04 12:58:42;;;;;;;;;;;;;;;12.88;60.77;100288.75;7366317;19;19942;-56